Terminal Aerodrome Forecast
Issued by NWS

Home | Current Version | Previous Version | Text Only | Print | Product List | Glossary On
Versions: 1 2 3 4 5 6 7 8 9 10 11 12 13 14 15 16 17 18 19 20
000
FTUS43 KDDC 141522 AAC
TAFHYS
TAF AMD
KHYS 141522Z 1415/1512 VRB03KT 1/4SM FG OVC002
     FM141600 18006KT 1 1/2SM BR BKN010
     FM141700 22007KT 3SM BR BKN015
     FM141800 27012KT P6SM SCT110
     FM142200 32028G37KT P6SM FEW250
     FM142300 33030G42KT P6SM SCT250
     FM151000 33020KT P6SM SKC=

USA.gov is the U.S. government's official web portal to all federal, state and local government web resources and services.